Time;durP1;ratioP1;P1;durP2;ratioP2;P2;SDS_P1;SDS_P2;PMS_P1;PMS_P2;Temp;Humidity;BMP_temperature;BMP_pressure;BME280_temperature;BME280_humidity;BME280_pressure;Samples;Min_cycle;Max_cycle;Signal;HPM_P1;HPM_P2
2023/09/06 00:02:18;;;;;;;14.30;6.53;;;;;;;14.15;100.00;93322.06;4996464;28;20038;-82
2023/09/06 00:04:45;;;;;;;18.13;6.72;;;;;;;14.10;100.00;93315.00;4996512;28;20088;-81
2023/09/06 00:07:11;;;;;;;12.23;6.65;;;;;;;14.10;100.00;93314.25;4997815;28;20042;-80
2023/09/06 00:09:37;;;;;;;14.75;7.07;;;;;;;14.12;100.00;93322.63;4997592;28;20105;-81
2023/09/06 00:12:02;;;;;;;11.40;6.60;;;;;;;14.14;100.00;93316.00;4995773;28;20372;-81
2023/09/06 00:14:29;;;;;;;12.63;6.35;;;;;;;14.14;100.00;93315.22;4997439;28;20046;-81
2023/09/06 00:16:55;;;;;;;13.13;6.88;;;;;;;14.17;100.00;93314.66;5016591;28;20116;-80
2023/09/06 00:19:21;;;;;;;10.93;6.53;;;;;;;14.15;100.00;93306.25;5017730;28;20064;-81
2023/09/06 00:21:47;;;;;;;12.05;6.80;;;;;;;14.11;100.00;93307.88;5011741;28;20138;-81
2023/09/06 00:24:14;;;;;;;14.93;6.65;;;;;;;14.12;100.00;93298.94;4996876;28;20125;-81
2023/09/06 00:26:40;;;;;;;11.93;6.70;;;;;;;14.08;100.00;93295.31;4995781;28;20034;-81
2023/09/06 00:29:07;;;;;;;15.00;6.85;;;;;;;14.08;100.00;93300.56;4997832;28;20030;-81
2023/09/06 00:31:36;;;;;;;11.32;6.80;;;;;;;14.04;100.00;93302.22;4996357;28;20031;-81
2023/09/06 00:34:03;;;;;;;13.50;7.00;;;;;;;14.05;100.00;93291.41;4978135;28;20500;-81
2023/09/06 00:36:29;;;;;;;11.98;6.95;;;;;;;14.05;100.00;93285.34;4991121;28;20057;-80
2023/09/06 00:38:59;;;;;;;12.95;6.70;;;;;;;14.02;100.00;93288.56;4996251;28;20072;-81
2023/09/06 00:41:26;;;;;;;13.55;6.93;;;;;;;13.99;100.00;93287.28;4995666;28;20570;-80
2023/09/06 00:43:52;;;;;;;13.77;6.95;;;;;;;13.99;100.00;93289.13;4996565;28;20044;-81
2023/09/06 00:46:22;;;;;;;13.65;6.90;;;;;;;14.02;100.00;93286.69;4996092;28;20481;-81
2023/09/06 00:48:51;;;;;;;14.00;6.57;;;;;;;13.99;100.00;93292.53;4995874;28;20139;-81
2023/09/06 00:51:19;;;;;;;15.25;7.78;;;;;;;13.99;100.00;93281.25;4996887;28;20102;-81
2023/09/06 00:53:46;;;;;;;16.17;7.25;;;;;;;13.99;100.00;93275.97;4992700;28;20125;-81
2023/09/06 00:56:14;;;;;;;15.35;7.78;;;;;;;14.02;100.00;93275.41;4978539;28;20505;-81
2023/09/06 00:58:40;;;;;;;16.48;7.43;;;;;;;14.04;100.00;93287.19;4977833;28;20129;-80
2023/09/06 01:01:06;;;;;;;16.10;7.32;;;;;;;13.99;100.00;93284.66;4996119;28;20054;-81
2023/09/06 01:03:32;;;;;;;14.35;7.35;;;;;;;13.97;100.00;93272.84;5016409;28;20377;-81
2023/09/06 01:06:07;;;;;;;16.17;7.70;;;;;;;14.00;100.00;93274.91;4999012;28;20080;-81
2023/09/06 01:08:46;;;;;;;15.63;8.32;;;;;;;14.00;100.00;93269.63;5020035;28;20116;-81
2023/09/06 01:11:14;;;;;;;12.18;7.53;;;;;;;14.01;100.00;93268.59;5019651;28;20041;-81
2023/09/06 01:13:40;;;;;;;12.95;7.78;;;;;;;14.00;100.00;93269.63;5015941;28;20025;-80
2023/09/06 01:16:06;;;;;;;13.98;7.63;;;;;;;13.97;100.00;93268.34;5000485;28;20095;-81
2023/09/06 01:18:32;;;;;;;14.20;7.05;;;;;;;13.96;100.00;93266.81;5003062;28;20038;-81
2023/09/06 01:21:06;;;;;;;15.50;7.55;;;;;;;13.94;100.00;93259.19;5020789;28;20042;-81
2023/09/06 01:23:40;;;;;;;16.98;7.90;;;;;;;13.95;100.00;93266.00;4986715;28;20041;-81
2023/09/06 01:26:06;;;;;;;12.30;8.27;;;;;;;13.94;100.00;93259.19;5003129;28;20102;-81
2023/09/06 01:28:33;;;;;;;12.80;7.50;;;;;;;13.95;100.00;93249.44;5020681;28;20037;-80
2023/09/06 01:31:00;;;;;;;15.77;8.02;;;;;;;13.97;100.00;93251.78;5019803;28;20033;-81
2023/09/06 01:33:28;;;;;;;12.82;7.45;;;;;;;13.95;100.00;93250.22;5002068;28;20122;-81
2023/09/06 01:35:54;;;;;;;14.13;7.78;;;;;;;13.99;100.00;93255.69;5019427;28;20140;-81
2023/09/06 01:38:19;;;;;;;16.92;8.05;;;;;;;13.98;100.00;93256.75;5019943;28;20041;-80
2023/09/06 01:40:45;;;;;;;14.90;7.70;;;;;;;13.93;100.00;93246.31;5019407;28;20042;-80
2023/09/06 01:43:12;;;;;;;15.00;8.15;;;;;;;13.92;100.00;93239.50;5001315;28;20065;-80
2023/09/06 01:45:50;;;;;;;12.82;7.90;;;;;;;13.88;100.00;93241.91;4998807;28;20046;-81
2023/09/06 01:48:20;;;;;;;17.70;7.78;;;;;;;13.87;100.00;93243.00;4992683;28;20056;-81
2023/09/06 01:50:46;;;;;;;11.63;7.32;;;;;;;13.86;100.00;93243.28;5020310;28;20026;-80
2023/09/06 01:53:13;;;;;;;13.32;7.30;;;;;;;13.84;100.00;93234.88;5018734;28;20385;-81
2023/09/06 01:55:43;;;;;;;13.25;7.03;;;;;;;13.87;100.00;93232.47;5017728;28;20581;-81
2023/09/06 01:58:10;;;;;;;13.15;7.35;;;;;;;13.88;100.00;93234.00;4998549;28;20049;-81
2023/09/06 02:00:37;;;;;;;13.05;7.10;;;;;;;13.88;100.00;93231.38;5002153;28;20064;-80
2023/09/06 02:03:05;;;;;;;11.70;7.70;;;;;;;13.90;100.00;93231.88;5002201;28;20483;-79
2023/09/06 02:05:31;;;;;;;13.60;7.68;;;;;;;13.88;100.00;93228.75;4996173;28;20519;-80
2023/09/06 02:07:57;;;;;;;18.08;6.93;;;;;;;13.87;100.00;93231.66;5018388;28;20033;-81
2023/09/06 02:10:23;;;;;;;12.10;7.43;;;;;;;13.87;100.00;93223.78;5019783;28;20026;-80
2023/09/06 02:12:48;;;;;;;11.85;6.88;;;;;;;13.86;100.00;93214.31;5000491;28;20447;-81
2023/09/06 02:15:14;;;;;;;13.70;7.45;;;;;;;13.85;100.00;93210.91;5001399;28;20085;-81
2023/09/06 02:17:44;;;;;;;10.77;7.18;;;;;;;13.83;100.00;93218.31;5000864;28;20496;-81
2023/09/06 02:20:17;;;;;;;16.48;7.80;;;;;;;13.80;100.00;93229.41;5018732;28;20061;-80
2023/09/06 02:22:44;;;;;;;11.27;6.95;;;;;;;13.75;100.00;93225.00;5001371;28;20038;-80
2023/09/06 02:25:10;;;;;;;11.20;7.00;;;;;;;13.73;100.00;93215.84;5018977;28;20033;-80
2023/09/06 02:27:36;;;;;;;10.57;7.03;;;;;;;13.71;100.00;93202.97;5018108;28;20129;-81
2023/09/06 02:30:06;;;;;;;14.27;7.50;;;;;;;13.72;100.00;93209.03;5017619;28;20033;-80
2023/09/06 02:32:32;;;;;;;12.68;7.72;;;;;;;13.71;100.00;93207.44;5018526;28;20126;-79
2023/09/06 02:34:58;;;;;;;14.73;7.38;;;;;;;13.71;100.00;93212.72;5001059;28;20034;-81
2023/09/06 02:37:24;;;;;;;14.15;8.18;;;;;;;13.71;100.00;93207.44;5018327;28;20030;-80
2023/09/06 02:39:52;;;;;;;12.20;7.53;;;;;;;13.72;100.00;93220.31;5001070;28;20040;-80
2023/09/06 02:42:19;;;;;;;13.30;7.88;;;;;;;13.69;100.00;93214.84;5001453;28;20041;-80
2023/09/06 02:44:44;;;;;;;11.75;7.32;;;;;;;13.65;100.00;93203.34;5008619;28;20030;-81
2023/09/06 02:47:11;;;;;;;13.27;7.90;;;;;;;13.64;100.00;93201.78;4965441;28;20066;-81
2023/09/06 02:49:42;;;;;;;13.35;7.72;;;;;;;13.63;100.00;93205.47;5016700;28;20030;-80
2023/09/06 02:52:28;;;;;;;12.82;7.50;;;;;;;13.64;100.00;93210.44;4999500;28;20137;-80
2023/09/06 02:55:04;;;;;;;12.05;7.13;;;;;;;13.66;100.00;93202.28;5019038;28;20688;-81
2023/09/06 02:57:32;;;;;;;12.50;7.50;;;;;;;13.64;100.00;93196.50;5000704;28;20096;-80
2023/09/06 02:59:57;;;;;;;12.90;7.80;;;;;;;13.65;100.00;93200.72;5000590;28;20042;-80
2023/09/06 03:02:23;;;;;;;12.88;7.88;;;;;;;13.61;100.00;93199.72;5000567;28;20092;-80
2023/09/06 03:05:03;;;;;;;10.15;7.03;;;;;;;13.60;100.00;93204.22;4984026;28;20034;-80
2023/09/06 03:07:31;;;;;;;13.98;7.47;;;;;;;13.61;100.00;93194.47;5000661;28;20041;-80
2023/09/06 03:09:57;;;;;;;10.75;7.93;;;;;;;13.56;100.00;93200.59;5000619;28;20042;-80
2023/09/06 03:12:23;;;;;;;14.77;7.68;;;;;;;13.54;100.00;93206.13;4999607;28;20136;-80
2023/09/06 03:14:50;;;;;;;11.27;7.22;;;;;;;13.52;100.00;93200.38;5018400;28;20034;-81
2023/09/06 03:17:18;;;;;;;12.68;7.43;;;;;;;13.52;100.00;93189.84;4998810;28;20129;-80
2023/09/06 03:19:46;;;;;;;14.55;7.78;;;;;;;13.54;100.00;93189.56;4999720;28;20034;-80
2023/09/06 03:22:13;;;;;;;12.20;7.72;;;;;;;13.50;100.00;93185.94;4984241;28;20121;-80
2023/09/06 03:24:40;;;;;;;10.30;7.40;;;;;;;13.48;100.00;93190.72;5000950;28;20026;-80
2023/09/06 03:27:07;;;;;;;11.60;7.50;;;;;;;13.42;100.00;93184.75;4984760;28;20041;-80
2023/09/06 03:29:37;;;;;;;14.02;7.80;;;;;;;13.46;100.00;93179.69;4999434;28;20561;-81
2023/09/06 03:32:10;;;;;;;14.85;7.93;;;;;;;13.51;100.00;93180.41;4997602;28;20134;-81
2023/09/06 03:34:40;;;;;;;16.75;8.38;;;;;;;13.49;100.00;93185.16;4999765;28;20034;-80
2023/09/06 03:37:10;;;;;;;13.88;8.02;;;;;;;13.43;100.00;93186.31;5001181;28;20034;-81
2023/09/06 03:39:41;;;;;;;12.73;7.88;;;;;;;13.37;100.00;93194.56;5000630;28;20041;-81
2023/09/06 03:42:10;;;;;;;13.20;8.43;;;;;;;13.36;100.00;93196.41;5016509;28;20030;-79
2023/09/06 03:44:36;;;;;;;14.88;8.15;;;;;;;13.33;100.00;93197.75;5007880;28;20523;-80
2023/09/06 03:47:13;;;;;;;13.52;8.07;;;;;;;13.32;100.00;93195.41;4998620;28;20035;-80
2023/09/06 03:49:39;;;;;;;14.02;7.85;;;;;;;13.31;100.00;93183.34;5016184;28;20526;-80
2023/09/06 03:52:06;;;;;;;14.82;7.05;;;;;;;13.30;100.00;93184.41;5016948;28;20492;-81
2023/09/06 03:54:34;;;;;;;12.63;7.40;;;;;;;13.28;100.00;93171.56;5000440;28;20046;-80
2023/09/06 03:57:04;;;;;;;14.02;8.02;;;;;;;13.36;100.00;93179.84;4984665;28;20022;-81
2023/09/06 03:59:35;;;;;;;13.88;8.20;;;;;;;13.34;100.00;93188.03;5000229;28;20046;-80
2023/09/06 04:02:07;;;;;;;13.65;7.68;;;;;;;13.27;100.00;93177.06;5005750;28;20034;-81
2023/09/06 04:04:34;;;;;;;12.52;7.45;;;;;;;13.24;100.00;93169.72;4999675;28;20120;-81
2023/09/06 04:07:02;;;;;;;13.27;7.60;;;;;;;13.23;100.00;93165.53;4997878;28;20014;-81
2023/09/06 04:09:32;;;;;;;13.27;8.05;;;;;;;13.20;100.00;93174.00;4999239;28;20410;-80
2023/09/06 04:11:59;;;;;;;11.80;7.78;;;;;;;13.22;100.00;93179.78;5016108;28;20503;-80
2023/09/06 04:14:25;;;;;;;16.13;7.90;;;;;;;13.20;100.00;93174.00;5015843;28;20030;-81
2023/09/06 04:16:53;;;;;;;11.70;7.70;;;;;;;13.19;100.00;93169.81;4999203;28;20033;-80
2023/09/06 04:19:19;;;;;;;12.48;7.80;;;;;;;13.17;100.00;93164.84;4998775;28;20030;-80
2023/09/06 04:21:48;;;;;;;12.50;8.15;;;;;;;13.14;100.00;93165.41;4998515;28;20101;-80
2023/09/06 04:24:15;;;;;;;13.00;8.25;;;;;;;13.11;100.00;93158.88;4999928;28;20053;-79
2023/09/06 04:26:41;;;;;;;17.95;8.98;;;;;;;13.09;100.00;93165.47;4999828;28;20041;-80
2023/09/06 04:29:07;;;;;;;16.17;9.20;;;;;;;13.07;100.00;93162.34;4992283;28;20423;-81
2023/09/06 04:31:32;;;;;;;13.82;8.52;;;;;;;13.04;100.00;93163.72;5013066;28;20034;-81
2023/09/06 04:34:01;;;;;;;14.80;8.02;;;;;;;13.05;100.00;93170.50;5000072;28;20095;-79
2023/09/06 04:36:27;;;;;;;12.77;7.55;;;;;;;13.08;100.00;93164.72;4997123;28;20097;-80
2023/09/06 04:38:58;;;;;;;13.82;7.90;;;;;;;13.10;100.00;93157.31;4994064;28;20034;-80
2023/09/06 04:41:25;;;;;;;18.30;8.15;;;;;;;13.12;100.00;93160.41;4994905;28;20038;-81
2023/09/06 04:43:55;;;;;;;13.30;7.90;;;;;;;13.11;100.00;93171.25;5005087;28;20045;-82
2023/09/06 04:46:21;;;;;;;13.43;7.88;;;;;;;13.10;100.00;93164.41;5005076;28;20037;-84
2023/09/06 04:48:50;;;;;;;14.57;7.22;;;;;;;13.07;100.00;93163.13;4997144;28;20567;-85
2023/09/06 04:51:15;;;;;;;14.02;8.20;;;;;;;13.10;100.00;93167.84;4997771;28;20287;-82
2023/09/06 04:53:42;;;;;;;12.85;8.07;;;;;;;13.11;100.00;93169.38;4997618;28;20045;-82
2023/09/06 04:56:09;;;;;;;13.15;7.50;;;;;;;13.12;100.00;93159.66;4996768;28;20037;-82
2023/09/06 04:58:40;;;;;;;13.60;7.72;;;;;;;13.14;100.00;93168.03;4995738;28;20045;-82
2023/09/06 05:01:06;;;;;;;14.07;7.43;;;;;;;13.17;100.00;93167.47;4991314;28;20146;-85
2023/09/06 05:03:33;;;;;;;13.93;8.40;;;;;;;13.13;100.00;93161.22;4993845;28;20415;-84
2023/09/06 05:06:00;;;;;;;13.35;7.32;;;;;;;13.18;100.00;93165.63;4979931;28;20038;-84
2023/09/06 05:08:26;;;;;;;12.10;7.60;;;;;;;13.18;100.00;93166.41;5011856;28;20041;-84
2023/09/06 05:10:52;;;;;;;15.63;7.78;;;;;;;13.17;100.00;93154.34;4997623;28;20042;-85
2023/09/06 05:13:19;;;;;;;16.20;8.23;;;;;;;13.22;100.00;93158.75;4980793;28;20034;-83
2023/09/06 05:15:46;;;;;;;13.07;7.47;;;;;;;13.26;100.00;93160.50;4998444;28;20128;-83
2023/09/06 05:18:12;;;;;;;14.13;7.68;;;;;;;13.31;100.00;93157.06;4996427;28;20117;-84
2023/09/06 05:20:40;;;;;;;12.38;7.70;;;;;;;13.34;100.00;93159.09;4996997;28;20046;-84
2023/09/06 05:23:15;;;;;;;12.02;7.18;;;;;;;13.39;100.00;93159.00;4994850;28;20041;-83
2023/09/06 05:25:43;;;;;;;12.82;7.60;;;;;;;13.49;100.00;93169.38;4997114;28;20133;-83
2023/09/06 05:28:15;;;;;;;13.57;7.72;;;;;;;13.56;100.00;93160.34;4993771;28;20558;-83
2023/09/06 05:30:46;;;;;;;13.02;7.18;;;;;;;13.65;100.00;93166.53;4994037;28;20037;-85
2023/09/06 05:33:15;;;;;;;12.27;7.07;;;;;;;13.70;100.00;93166.44;5014307;28;20038;-85
2023/09/06 05:35:43;;;;;;;13.77;7.25;;;;;;;13.83;100.00;93170.19;4996329;28;20042;-83
2023/09/06 05:38:09;;;;;;;9.77;7.05;;;;;;;13.93;100.00;93172.63;4976703;28;20042;-85
2023/09/06 05:40:40;;;;;;;13.93;7.50;;;;;;;14.04;100.00;93173.22;4993146;28;20364;-84
2023/09/06 05:43:07;;;;;;;11.30;7.07;;;;;;;14.17;100.00;93177.72;4980899;28;20062;-84
2023/09/06 05:45:34;;;;;;;10.35;7.32;;;;;;;14.28;100.00;93179.09;4993161;28;20120;-85
2023/09/06 05:47:59;;;;;;;9.73;6.75;;;;;;;14.39;100.00;93171.81;4980330;28;20091;-83
2023/09/06 05:50:27;;;;;;;12.60;7.03;;;;;;;14.55;100.00;93172.31;4996474;28;20106;-84
2023/09/06 05:52:54;;;;;;;11.18;7.35;;;;;;;14.68;100.00;93170.72;4996777;28;20042;-84
2023/09/06 05:55:20;;;;;;;11.18;6.78;;;;;;;14.84;100.00;93168.56;5000527;28;20040;-85
2023/09/06 05:57:49;;;;;;;10.98;6.80;;;;;;;15.00;100.00;93164.56;5000762;28;20045;-84
2023/09/06 06:00:17;;;;;;;15.52;7.50;;;;;;;15.17;100.00;93167.31;4996780;28;20519;-85
2023/09/06 06:02:49;;;;;;;12.35;6.72;;;;;;;15.34;100.00;93160.66;4997545;28;20456;-84
2023/09/06 06:05:18;;;;;;;12.98;7.07;;;;;;;16.05;100.00;93162.66;4997355;28;20287;-86
2023/09/06 06:07:44;;;;;;;10.70;6.75;;;;;;;17.31;100.00;93159.44;4997965;28;20030;-84
2023/09/06 06:10:12;;;;;;;11.20;6.55;;;;;;;18.50;100.00;93165.94;4996102;28;20042;-84
2023/09/06 06:12:39;;;;;;;8.88;5.55;;;;;;;19.52;100.00;93165.97;4997111;28;20499;-85
2023/09/06 06:15:11;;;;;;;12.05;5.72;;;;;;;20.44;100.00;93166.84;4996980;28;20041;-84
2023/09/06 06:17:37;;;;;;;11.18;5.38;;;;;;;21.12;100.00;93175.06;4997818;28;20034;-83
2023/09/06 06:20:07;;;;;;;8.68;5.15;;;;;;;21.77;100.00;93179.59;4980935;28;20023;-84
2023/09/06 06:22:38;;;;;;;8.40;5.07;;;;;;;22.23;100.00;93185.41;4998207;28;20341;-86
2023/09/06 06:25:05;;;;;;;9.63;5.43;;;;;;;22.86;100.00;93176.66;5014463;28;20033;-84
2023/09/06 06:27:31;;;;;;;10.73;5.60;;;;;;;23.49;100.00;93187.22;4993404;28;20023;-86
2023/09/06 06:29:57;;;;;;;7.72;5.10;;;;;;;24.24;100.00;93187.19;4998438;28;20039;-86
2023/09/06 06:32:22;;;;;;;8.63;4.85;;;;;;;24.68;100.00;93200.97;4993828;28;20412;-86
2023/09/06 06:34:50;;;;;;;6.75;4.60;;;;;;;24.88;99.32;93192.84;4996791;28;20034;-87
2023/09/06 06:37:16;;;;;;;9.10;4.75;;;;;;;25.36;94.03;93185.19;4997247;28;20038;-86
2023/09/06 06:39:42;;;;;;;8.52;4.93;;;;;;;25.53;89.08;93192.72;4999295;28;20042;-87
2023/09/06 06:42:08;;;;;;;8.68;5.50;;;;;;;25.77;88.26;93194.16;4998533;28;20378;-87
2023/09/06 06:44:45;;;;;;;7.57;4.88;;;;;;;26.58;82.52;93194.69;4994552;28;20035;-87
2023/09/06 06:47:11;;;;;;;8.68;4.53;;;;;;;26.42;81.24;93194.91;4995866;28;20066;-86
2023/09/06 06:49:36;;;;;;;11.35;4.90;;;;;;;27.11;75.53;93197.06;4975564;28;20150;-87
2023/09/06 06:52:02;;;;;;;6.13;4.55;;;;;;;27.36;68.08;93194.56;4979771;28;20041;-87
2023/09/06 06:54:27;;;;;;;6.43;4.57;;;;;;;27.46;64.92;93189.63;4996323;28;20034;-85
2023/09/06 06:56:53;;;;;;;8.80;5.07;;;;;;;28.03;65.45;93189.91;4998682;28;20042;-84
2023/09/06 06:59:19;;;;;;;7.25;4.85;;;;;;;28.04;59.06;93191.47;4951500;28;20051;-82
2023/09/06 07:01:44;;;;;;;9.38;4.80;;;;;;;28.08;59.80;93194.16;4979460;28;20532;-86
2023/09/06 07:04:11;;;;;;;10.50;4.55;;;;;;;27.83;60.58;93197.47;4994675;28;20042;-85
2023/09/06 07:06:36;;;;;;;7.20;4.30;;;;;;;27.29;63.34;93201.78;5000265;28;20037;-85
2023/09/06 07:09:03;;;;;;;7.57;4.47;;;;;;;27.42;60.76;93200.34;4984574;28;20127;-86
2023/09/06 07:11:30;;;;;;;8.73;5.32;;;;;;;26.89;63.84;93192.66;5002003;28;20052;-84
2023/09/06 07:13:55;;;;;;;10.75;6.50;;;;;;;25.65;71.11;93188.25;4997777;28;20030;-84
2023/09/06 07:16:22;;;;;;;12.05;5.93;;;;;;;25.09;73.79;93192.44;5001397;28;20093;-84
2023/09/06 07:18:49;;;;;;;10.95;5.68;;;;;;;23.75;81.66;93193.88;5018367;28;20033;-84
2023/09/06 07:21:16;;;;;;;13.57;5.97;;;;;;;23.19;84.55;93199.53;4991428;28;20058;-84
2023/09/06 07:23:42;;;;;;;10.23;5.72;;;;;;;22.26;87.73;93202.63;4979406;28;20057;-85
2023/09/06 07:26:08;;;;;;;10.77;5.45;;;;;;;21.36;94.92;93192.09;4999222;28;20096;-84
2023/09/06 07:28:39;;;;;;;9.63;5.53;;;;;;;21.16;100.00;93201.78;4982386;28;20464;-83
2023/09/06 07:31:05;;;;;;;15.63;6.93;;;;;;;20.57;100.00;93198.44;5016670;28;20038;-85
2023/09/06 07:33:31;;;;;;;12.80;5.75;;;;;;;20.65;100.00;93193.34;4998766;28;20033;-86
2023/09/06 07:35:57;;;;;;;9.05;6.03;;;;;;;20.61;100.00;93197.81;5017164;28;20042;-86
2023/09/06 07:38:22;;;;;;;9.38;6.32;;;;;;;20.86;100.00;93204.69;5016074;28;20030;-85
2023/09/06 07:40:58;;;;;;;10.35;6.25;;;;;;;20.64;100.00;93205.13;5015825;28;20435;-86
2023/09/06 07:43:26;;;;;;;10.77;6.85;;;;;;;20.46;100.00;93199.97;5017151;28;20475;-82
2023/09/06 07:45:52;;;;;;;11.02;6.85;;;;;;;20.10;100.00;93206.75;5017468;28;20030;-82
2023/09/06 07:48:18;;;;;;;12.63;7.18;;;;;;;20.20;100.00;93208.22;4973411;28;20029;-82
2023/09/06 07:50:43;;;;;;;13.43;7.45;;;;;;;20.45;100.00;93217.03;5018489;28;20458;-82
2023/09/06 07:53:09;;;;;;;11.25;7.60;;;;;;;20.53;100.00;93221.47;5018268;28;20046;-83
2023/09/06 07:55:34;;;;;;;12.90;7.40;;;;;;;20.72;100.00;93220.97;5018553;28;20084;-82
2023/09/06 07:58:00;;;;;;;13.13;7.05;;;;;;;20.63;100.00;93216.88;5015333;28;21229;-83
2023/09/06 08:00:26;;;;;;;11.55;6.90;;;;;;;20.51;100.00;93222.91;5001115;28;20378;-82
2023/09/06 08:02:54;;;;;;;10.00;6.10;;;;;;;20.30;100.00;93222.97;5017974;28;20030;-82
2023/09/06 08:05:19;;;;;;;11.25;5.82;;;;;;;20.70;100.00;93222.41;4979543;28;20173;-82
2023/09/06 08:07:45;;;;;;;12.50;6.55;;;;;;;20.84;100.00;93222.88;4981293;28;20097;-83
2023/09/06 08:10:12;;;;;;;11.50;6.85;;;;;;;20.72;100.00;93225.53;4998865;28;20027;-82
2023/09/06 08:12:39;;;;;;;12.98;6.07;;;;;;;20.61;100.00;93235.81;5000128;28;20116;-83
2023/09/06 08:15:05;;;;;;;14.10;6.95;;;;;;;20.24;100.00;93229.59;5018207;28;20087;-82
2023/09/06 08:17:30;;;;;;;11.38;6.43;;;;;;;20.48;100.00;93237.63;5000775;28;20508;-82
2023/09/06 08:19:56;;;;;;;9.82;6.60;;;;;;;20.54;100.00;93238.22;5001140;28;20034;-83
2023/09/06 08:22:21;;;;;;;9.65;6.68;;;;;;;20.65;100.00;93235.91;5017404;28;20412;-82
2023/09/06 08:24:47;;;;;;;11.05;6.35;;;;;;;20.78;100.00;93250.78;5018101;28;20030;-83
2023/09/06 08:27:12;;;;;;;14.18;6.25;;;;;;;20.78;100.00;93237.47;5001014;28;20064;-82
2023/09/06 08:29:38;;;;;;;11.60;6.97;;;;;;;20.64;100.00;93247.66;5018248;28;20030;-82
2023/09/06 08:32:04;;;;;;;13.35;6.72;;;;;;;20.48;100.00;93248.28;5000665;28;20782;-82
2023/09/06 08:34:29;;;;;;;11.73;6.13;;;;;;;20.73;100.00;93249.13;5018195;28;20040;-82
2023/09/06 08:36:56;;;;;;;11.35;7.00;;;;;;;20.87;100.00;93251.47;5018286;28;20038;-82
2023/09/06 08:39:22;;;;;;;10.07;6.53;;;;;;;20.96;100.00;93246.84;5001148;28;20040;-82
2023/09/06 08:41:49;;;;;;;9.40;6.25;;;;;;;21.24;100.00;93251.47;5019022;28;20037;-82
2023/09/06 08:44:18;;;;;;;13.27;6.20;;;;;;;20.94;98.08;93251.72;4997407;28;20109;-82
2023/09/06 08:46:45;;;;;;;10.65;6.88;;;;;;;21.12;100.00;93254.13;5017886;28;20123;-82
2023/09/06 08:49:12;;;;;;;12.90;7.32;;;;;;;21.05;100.00;93246.69;5001610;28;20038;-83
2023/09/06 08:51:41;;;;;;;11.77;7.00;;;;;;;21.11;100.00;93257.91;5018762;28;20060;-82
2023/09/06 08:54:08;;;;;;;12.07;7.68;;;;;;;20.57;100.00;93256.97;5019267;28;20539;-84
2023/09/06 08:56:35;;;;;;;12.07;7.47;;;;;;;20.70;100.00;93247.13;5018322;28;20044;-81
2023/09/06 08:59:00;;;;;;;13.77;7.05;;;;;;;20.70;100.00;93257.00;5018470;28;20495;-82
2023/09/06 09:01:28;;;;;;;14.07;7.53;;;;;;;20.90;100.00;93260.69;5018582;28;20046;-84
2023/09/06 09:03:53;;;;;;;9.25;6.22;;;;;;;20.72;100.00;93262.78;5001119;28;20088;-82
2023/09/06 09:06:20;;;;;;;10.18;6.25;;;;;;;20.76;100.00;93260.97;5018954;28;20038;-83
2023/09/06 09:08:46;;;;;;;11.82;6.70;;;;;;;20.72;100.00;93260.09;5018967;28;20030;-83
2023/09/06 09:11:19;;;;;;;10.43;5.75;;;;;;;20.76;100.00;93272.41;4984040;28;20057;-83
2023/09/06 09:13:45;;;;;;;9.95;5.50;;;;;;;20.59;100.00;93257.41;5019020;28;20018;-82
2023/09/06 09:16:15;;;;;;;10.02;5.97;;;;;;;20.72;100.00;93268.09;5019277;28;20021;-83
2023/09/06 09:18:43;;;;;;;11.65;6.47;;;;;;;20.95;100.00;93266.56;5018275;28;20042;-83
2023/09/06 09:21:10;;;;;;;12.13;5.82;;;;;;;21.02;100.00;93268.66;5018258;28;20094;-82
2023/09/06 09:23:44;;;;;;;9.60;5.32;;;;;;;21.11;100.00;93273.88;5011955;28;20042;-83
2023/09/06 09:26:10;;;;;;;10.25;5.35;;;;;;;21.19;99.57;93262.34;5017987;28;20042;-81
2023/09/06 09:28:35;;;;;;;9.52;5.70;;;;;;;20.75;92.42;93270.84;5020873;28;20484;-82
2023/09/06 09:31:02;;;;;;;10.10;5.00;;;;;;;20.87;100.00;93272.75;5004906;28;20037;-82
2023/09/06 09:33:29;;;;;;;8.48;5.50;;;;;;;20.96;100.00;93277.97;5023442;28;20029;-82
2023/09/06 09:35:55;;;;;;;10.90;5.90;;;;;;;21.17;96.57;93267.25;5005590;28;20119;-82
2023/09/06 09:38:21;;;;;;;13.25;5.85;;;;;;;21.00;95.45;93279.63;5024144;28;20025;-82
2023/09/06 09:41:06;;;;;;;11.27;5.90;;;;;;;21.05;95.80;93291.19;4989999;28;20076;-82
2023/09/06 09:43:32;;;;;;;12.35;5.93;;;;;;;21.35;94.83;93281.09;5005579;28;20140;-82
2023/09/06 09:45:58;;;;;;;10.13;5.85;;;;;;;21.42;89.62;93278.69;5024152;28;20041;-82
2023/09/06 09:48:29;;;;;;;9.52;5.47;;;;;;;21.35;88.59;93276.53;5023634;28;20038;-83
2023/09/06 09:50:55;;;;;;;9.63;5.55;;;;;;;21.48;90.00;93288.00;5023216;28;20358;-82
2023/09/06 09:53:26;;;;;;;9.75;6.13;;;;;;;21.57;89.76;93279.88;5022670;28;20037;-82
2023/09/06 09:55:54;;;;;;;9.52;5.95;;;;;;;21.65;91.46;93275.53;5023391;28;20061;-82
2023/09/06 09:58:20;;;;;;;8.10;5.32;;;;;;;21.67;82.80;93278.66;5023283;28;20034;-82
2023/09/06 10:00:50;;;;;;;8.52;5.63;;;;;;;21.72;85.79;93275.75;5021608;28;20056;-82
2023/09/06 10:03:16;;;;;;;8.20;5.25;;;;;;;21.73;83.38;93280.75;5023061;28;20105;-83
2023/09/06 10:05:42;;;;;;;9.93;5.68;;;;;;;21.85;85.70;93279.16;5006698;28;20129;-82
2023/09/06 10:08:09;;;;;;;8.60;5.65;;;;;;;22.02;85.32;93278.88;5023262;28;20112;-82
2023/09/06 10:10:39;;;;;;;8.73;4.70;;;;;;;21.77;82.88;93283.50;5002536;28;20064;-83
2023/09/06 10:13:07;;;;;;;8.02;5.13;;;;;;;21.75;82.59;93285.72;5002613;28;20030;-82
2023/09/06 10:15:34;;;;;;;10.18;5.78;;;;;;;21.77;82.87;93276.31;4986668;28;20101;-81
2023/09/06 10:18:00;;;;;;;9.60;6.05;;;;;;;21.78;87.02;93269.09;4987480;28;20029;-81
2023/09/06 10:20:30;;;;;;;8.63;5.40;;;;;;;22.05;83.40;93272.88;5006990;28;20038;-82
2023/09/06 10:22:57;;;;;;;11.30;5.50;;;;;;;22.15;82.49;93283.06;5023010;28;20022;-82
2023/09/06 10:25:24;;;;;;;11.30;5.43;;;;;;;22.36;79.77;93271.44;5022735;28;20061;-82
2023/09/06 10:27:55;;;;;;;7.70;5.50;;;;;;;22.30;77.09;93270.16;5023687;28;20057;-82
2023/09/06 10:30:28;;;;;;;10.10;4.72;;;;;;;22.59;83.39;93275.13;5023713;28;20034;-82
2023/09/06 10:32:54;;;;;;;9.73;5.82;;;;;;;22.54;77.16;93277.25;5023453;28;20045;-82
2023/09/06 10:35:24;;;;;;;8.35;4.60;;;;;;;22.46;79.43;93268.31;5024056;28;20033;-81
2023/09/06 10:38:11;;;;;;;8.57;4.95;;;;;;;22.37;77.49;93275.69;5023001;28;20095;-81
2023/09/06 10:40:49;;;;;;;10.45;5.40;;;;;;;22.13;76.36;93279.94;4989302;28;20038;-81
2023/09/06 10:43:19;;;;;;;10.57;4.38;;;;;;;22.50;77.64;93276.41;5023595;28;20479;-81
2023/09/06 10:46:09;;;;;;;7.55;4.22;;;;;;;22.50;73.26;93277.16;5022971;28;20041;-82
2023/09/06 10:48:35;;;;;;;7.85;4.30;;;;;;;22.64;73.17;93272.19;5023530;28;20033;-82
2023/09/06 10:51:05;;;;;;;10.75;4.80;;;;;;;22.82;76.14;93271.88;5023876;28;20028;-81
2023/09/06 10:53:36;;;;;;;10.05;4.60;;;;;;;22.99;76.47;93276.09;5006608;28;20423;-82
2023/09/06 10:56:03;;;;;;;10.48;5.13;;;;;;;22.93;73.37;93280.94;5023166;28;20408;-81
2023/09/06 10:58:30;;;;;;;7.20;4.72;;;;;;;23.17;72.16;93271.22;5023156;28;20026;-81
2023/09/06 11:01:25;;;;;;;7.57;4.65;;;;;;;23.18;71.02;93278.13;5004455;28;20046;-82
2023/09/06 11:03:51;;;;;;;10.30;4.80;;;;;;;22.86;71.90;93270.84;4983543;28;20058;-83
2023/09/06 11:06:18;;;;;;;7.00;4.63;;;;;;;22.92;73.68;93260.69;5020823;28;20065;-83
2023/09/06 11:08:46;;;;;;;8.07;4.65;;;;;;;23.04;72.34;93257.97;5020354;28;20049;-81
2023/09/06 11:11:14;;;;;;;7.55;4.35;;;;;;;23.01;71.56;93274.69;5020448;28;20033;-82
2023/09/06 11:13:41;;;;;;;9.13;4.90;;;;;;;23.02;73.89;93265.53;5020977;28;20045;-83
2023/09/06 11:16:12;;;;;;;8.38;5.13;;;;;;;22.97;72.50;93268.44;5022015;28;20057;-85
2023/09/06 11:18:46;;;;;;;8.77;4.50;;;;;;;23.12;71.48;93271.47;5021077;28;20073;-83
2023/09/06 11:21:19;;;;;;;9.63;4.97;;;;;;;23.01;74.67;93269.34;5020746;28;20077;-82
2023/09/06 11:23:47;;;;;;;8.15;4.75;;;;;;;22.83;72.70;93268.88;5019221;28;20045;-80
2023/09/06 11:26:13;;;;;;;7.88;4.72;;;;;;;22.94;73.45;93265.69;5020367;28;20053;-82